Bethel, New York
Current Conditions -  °F | °C
As of 4:15 AM on Friday 19 Dec 2014 (Local Time) from KMSV Reporting Station
Overcast Overcast  
Wind Chill: 16°   Ceiling: 2100
Heat Index: 28°   Visibility: 10mi
Dew Point: 21°   Wind: 17mph
Humidity: 74%   Direction: 300°WNW
Pressure: 29.93"   Gusts: 29mph
Location:  41.68°N, 74.86°W
Report Text: KMSV 190915Z AUTO 30015G25KT 10SM OVC021 M02/M06 A2993 RMK AO1
Loading
Personal Weather Stations






























Interactive Weather Map New forecast layout! Learn more

10-Day Weather Forecast

Advertisements
Track Severe Weather on mobile